Bookmark and Share
Track history (hours):
 

Urania

Last reported at 2014-Jan-22 13:26 UTC. Time now 2014-Apr-20 00:44 UTC.
Position N 31°00' E 122°27'.
Warning: this ship's position is months out of date.

Length 85 m; draft 5.1 m.

Type: Ship (hazmat cat A). MMSI: 370859000.

NotesDate/timePositionNaut miles runAvg speedWind from/ knotsBaromVisibWave heightAir tempDewpointWater temp
2014-Jan-22 13:26N 31°00' E 122°27'50 9.8
2014-Jan-22 08:19N 31°23' E 121°35'6 7.5
2014-Jan-22 07:33N 31°26' E 121°29'9 7.8
2014-Jan-22 06:22N 31°32' E 121°21'3510.7
2014-Jan-22 03:04N 31°57' E 120°51'610.9
2014-Jan-22 02:33N 32°01' E 120°46'1110.9
2014-Jan-22 01:31N 32°01' E 120°33'8 8.2
2014-Jan-22 00:33N 32°00' E 120°24'9 8.8
2014-Jan-21 23:33N 31°56' E 120°14'3 2.8
2014-Jan-21 22:26N 31°56' E 120°11'0 0.1
2014-Jan-21 21:31N 31°56' E 120°11'0 0.0
2014-Jan-21 20:32N 31°56' E 120°11'0 0.0
2014-Jan-21 19:19N 31°56' E 120°11'0 0.0
2014-Jan-21 18:19N 31°56' E 120°11'0 0.0
2014-Jan-21 17:19N 31°56' E 120°11'0 0.0
2014-Jan-21 16:31N 31°56' E 120°11'0 0.0
2014-Jan-21 15:31N 31°56' E 120°11'0 0.0
2014-Jan-21 14:31N 31°56' E 120°11'0 0.1
2014-Jan-21 12:31N 31°56' E 120°11'0 0.4
2014-Jan-21 11:33N 31°56' E 120°10'7 2.9
2014-Jan-21 09:16N 31°57' E 120°02'0 0.0
2014-Jan-21 07:28N 31°57' E 120°02'0 0.0
2014-Jan-21 06:28N 31°57' E 120°02'0 0.0
2014-Jan-21 05:22N 31°57' E 120°02'0 0.0
2014-Jan-21 04:28N 31°57' E 120°02'0 0.0
2014-Jan-21 02:10N 31°57' E 120°02'0 0.0
2014-Jan-21 01:04N 31°57' E 120°02'0 0.0
2014-Jan-20 20:28N 31°57' E 120°02'0 0.0
2014-Jan-20 19:28N 31°57' E 120°02'0 0.0
2014-Jan-20 18:28N 31°57' E 120°02'0 0.0
2014-Jan-20 08:19N 31°57' E 120°02'4 4.7
2014-Jan-20 07:33N 31°57' E 120°07'3 3.0
2014-Jan-20 06:30N 31°56' E 120°10'0 0.0
2014-Jan-20 05:24N 31°56' E 120°10'0 0.0
2014-Jan-20 04:33N 31°56' E 120°10'0 0.0
2014-Jan-20 03:30N 31°56' E 120°10'0 0.0
2014-Jan-20 02:30N 31°56' E 120°10'0 0.0
2014-Jan-20 01:24N 31°56' E 120°10'0 0.0
2014-Jan-20 00:12N 31°56' E 120°10'0 0.1
2014-Jan-19 23:27N 31°56' E 120°10'0 0.0
2014-Jan-19 20:18N 31°56' E 120°10'0 0.0
2014-Jan-19 19:08N 31°56' E 120°10'0 0.0
2014-Jan-19 18:33N 31°56' E 120°10'0 0.0
2014-Jan-19 17:33N 31°56' E 120°10'0 0.0
2014-Jan-19 16:33N 31°56' E 120°10'0 0.0
2014-Jan-19 15:33N 31°56' E 120°10'0 0.0
2014-Jan-19 14:33N 31°56' E 120°10'0 0.0
2014-Jan-19 13:33N 31°56' E 120°10'10 5.0
2014-Jan-19 11:33N 31°60' E 120°21'1010.1
2014-Jan-19 10:33N 32°04' E 120°32'1111.0
2014-Jan-19 09:33N 32°01' E 120°45'3811.4
2014-Jan-19 06:12N 31°35' E 121°18'812.0
2014-Jan-19 05:31N 31°30' E 121°26'1010.0
2014-Jan-19 04:33N 31°24' E 121°34'  

Dump ship's entire track history

sailing weather and tide predictions

Urania — 3FZA2 — position and weather